Time;durP1;ratioP1;P1;durP2;ratioP2;P2;SDS_P1;SDS_P2;PMS_P1;PMS_P2;Temp;Humidity;BMP_temperature;BMP_pressure;BME280_temperature;BME280_humidity;BME280_pressure;Samples;Min_cycle;Max_cycle;Signal;HPM_P1;HPM_P2
2023/10/25 00:01:13;;;;;;;12.35;4.10;;;;;;;18.64;73.23;98101.41;4382325;32;33882;-74
2023/10/25 00:03:41;;;;;;;10.65;3.85;;;;;;;18.71;73.11;98099.53;4374841;32;34082;-75
2023/10/25 00:06:09;;;;;;;19.27;3.17;;;;;;;18.62;73.58;98104.34;4374329;32;33934;-75
2023/10/25 00:08:36;;;;;;;16.48;3.40;;;;;;;18.68;73.61;98099.12;4373274;32;33638;-75
2023/10/25 00:11:05;;;;;;;16.40;3.35;;;;;;;18.66;73.84;98091.19;4372757;32;33714;-76
2023/10/25 00:13:33;;;;;;;10.80;4.18;;;;;;;18.62;73.95;98087.25;4374887;32;34947;-72
2023/10/25 00:16:01;;;;;;;7.28;2.65;;;;;;;18.51;74.63;98082.41;4374849;32;34886;-71
2023/10/25 00:18:30;;;;;;;9.68;2.60;;;;;;;18.68;73.96;98080.16;4373633;32;33499;-74
2023/10/25 00:20:57;;;;;;;14.13;3.15;;;;;;;18.76;73.72;98075.41;4374184;32;34486;-71
2023/10/25 00:23:25;;;;;;;18.48;4.43;;;;;;;18.72;73.91;98070.59;4374275;32;34937;-74
2023/10/25 00:25:52;;;;;;;11.45;3.03;;;;;;;18.98;72.62;98072.50;4372312;32;34478;-75
2023/10/25 00:28:20;;;;;;;6.35;2.08;;;;;;;18.98;72.48;98073.31;4373534;32;33693;-68
2023/10/25 00:30:48;;;;;;;14.50;3.28;;;;;;;18.97;72.50;98065.37;4373535;32;33572;-69
2023/10/25 00:33:15;;;;;;;9.15;3.12;;;;;;;18.66;73.57;98064.09;4365726;32;33730;-69
2023/10/25 00:35:43;;;;;;;13.68;2.62;;;;;;;18.99;72.62;98055.16;4373980;32;34081;-74
2023/10/25 00:38:10;;;;;;;7.12;2.55;;;;;;;18.96;72.75;98061.84;4374490;32;34157;-73
2023/10/25 00:40:38;;;;;;;13.80;2.00;;;;;;;18.68;73.87;98056.59;4373513;32;34371;-70
2023/10/25 00:43:19;;;;;;;10.40;3.30;;;;;;;18.83;73.24;98051.00;4363088;32;33755;-70
2023/10/25 00:46:13;;;;;;;16.25;3.75;;;;;;;18.83;73.25;98062.69;4370737;32;33817;-71
2023/10/25 00:48:43;;;;;;;11.60;3.28;;;;;;;18.60;74.16;98062.22;4373457;32;35033;-70
2023/10/25 00:51:13;;;;;;;13.32;3.05;;;;;;;18.43;75.19;98056.38;4373420;32;33899;-70
2023/10/25 00:53:42;;;;;;;17.58;4.05;;;;;;;18.73;74.05;98056.00;4361330;32;35214;-71
2023/10/25 00:56:11;;;;;;;9.73;4.00;;;;;;;18.89;72.98;98055.59;4372408;32;34026;-71
2023/10/25 00:58:41;;;;;;;16.60;3.35;;;;;;;18.75;73.85;98038.50;4372834;32;33406;-70
2023/10/25 01:01:09;;;;;;;17.50;3.40;;;;;;;17.84;78.68;98035.37;4371513;32;34003;-70
2023/10/25 01:03:36;;;;;;;7.47;3.10;;;;;;;18.22;76.50;98037.56;4371291;32;33595;-71
2023/10/25 01:06:05;;;;;;;10.48;2.65;;;;;;;18.53;75.28;98028.88;4372367;32;33775;-70
2023/10/25 01:08:32;;;;;;;9.57;3.80;;;;;;;18.87;73.37;98018.87;4373970;32;33796;-68
2023/10/25 01:11:00;;;;;;;10.90;2.28;;;;;;;19.03;72.28;98019.28;4366269;32;34921;-70
2023/10/25 01:13:27;;;;;;;8.15;2.47;;;;;;;18.98;72.48;98000.12;4372739;32;33699;-70
2023/10/25 01:15:55;;;;;;;14.82;2.95;;;;;;;18.88;72.58;97986.16;4372947;32;34170;-69
2023/10/25 01:18:23;;;;;;;11.48;3.65;;;;;;;19.19;71.42;97962.94;4373196;32;33240;-70
2023/10/25 01:20:51;;;;;;;11.07;3.42;;;;;;;19.13;71.80;97963.78;4367722;32;33647;-71
2023/10/25 01:23:19;;;;;;;21.65;3.03;;;;;;;19.20;71.34;97960.03;4364739;32;33789;-70
2023/10/25 01:25:46;;;;;;;12.35;3.25;;;;;;;19.27;70.97;97962.72;4379167;32;34216;-71
2023/10/25 01:28:14;;;;;;;9.00;3.25;;;;;;;19.32;70.87;97968.31;4372567;32;33461;-71
2023/10/25 01:30:42;;;;;;;12.93;4.47;;;;;;;19.24;70.93;97958.53;4372903;32;33841;-70
2023/10/25 01:33:09;;;;;;;13.90;4.37;;;;;;;19.34;70.44;97949.94;4371972;32;33806;-69
2023/10/25 01:35:38;;;;;;;7.62;3.83;;;;;;;19.17;71.13;97955.03;4372883;32;34540;-70
2023/10/25 01:38:06;;;;;;;9.27;2.92;;;;;;;18.76;73.18;97944.47;4377349;32;33438;-71
2023/10/25 01:40:33;;;;;;;13.57;3.25;;;;;;;19.18;71.06;97959.41;4389069;32;33545;-68
2023/10/25 01:43:01;;;;;;;13.75;3.42;;;;;;;19.20;70.93;97957.31;4391410;32;34015;-69
2023/10/25 01:45:30;;;;;;;15.45;3.15;;;;;;;19.21;71.03;97955.44;4390535;32;35147;-70
2023/10/25 01:47:59;;;;;;;5.80;3.10;;;;;;;19.24;70.84;97949.56;4390623;32;33229;-71
2023/10/25 01:50:26;;;;;;;10.85;2.92;;;;;;;19.24;70.87;97947.69;4390686;32;33831;-70
2023/10/25 01:52:54;;;;;;;8.95;3.62;;;;;;;19.37;70.43;97962.25;4381950;32;35350;-70
2023/10/25 01:55:21;;;;;;;9.40;3.33;;;;;;;19.44;70.03;97953.03;4388474;32;33941;-69
2023/10/25 01:57:49;;;;;;;6.22;3.28;;;;;;;19.47;69.86;97951.78;4388537;32;34156;-71
2023/10/25 02:00:17;;;;;;;10.50;2.78;;;;;;;19.37;70.12;97941.38;4386150;32;33981;-71
2023/10/25 02:02:45;;;;;;;11.30;3.53;;;;;;;19.47;69.78;97930.91;4388896;32;34102;-70
2023/10/25 02:05:12;;;;;;;14.15;4.47;;;;;;;19.49;69.68;97930.72;4381486;32;34950;-70
2023/10/25 02:07:40;;;;;;;7.62;2.78;;;;;;;19.53;69.47;97934.66;4387075;32;34944;-71
2023/10/25 02:10:08;;;;;;;10.63;4.03;;;;;;;19.54;69.37;97933.59;4390498;32;33819;-67
2023/10/25 02:12:36;;;;;;;10.45;3.12;;;;;;;19.53;69.36;97932.75;4391486;32;33883;-77
2023/10/25 02:15:05;;;;;;;12.63;4.22;;;;;;;19.55;69.25;97929.84;4386983;32;34046;-77
2023/10/25 02:17:33;;;;;;;11.68;4.03;;;;;;;19.55;69.18;97927.13;4387255;32;34659;-77
2023/10/25 02:20:01;;;;;;;13.70;3.67;;;;;;;19.53;69.22;97930.03;4389338;32;34653;-75
2023/10/25 02:22:28;;;;;;;6.75;3.55;;;;;;;19.54;69.23;97931.69;4389875;32;33955;-78
2023/10/25 02:24:56;;;;;;;10.25;3.47;;;;;;;19.60;69.05;97934.59;4388416;32;32917;-76
2023/10/25 02:27:25;;;;;;;14.13;4.10;;;;;;;19.57;69.06;97924.19;4387843;32;33268;-77
2023/10/25 02:29:52;;;;;;;11.60;3.85;;;;;;;19.57;69.09;97922.31;4392030;32;35526;-78
2023/10/25 02:32:20;;;;;;;14.05;4.93;;;;;;;19.59;69.01;97913.97;4389326;32;34030;-77
2023/10/25 02:34:47;;;;;;;14.27;3.95;;;;;;;19.56;69.07;97917.94;4384087;32;33856;-75
2023/10/25 02:37:15;;;;;;;8.18;4.15;;;;;;;19.60;68.92;97916.44;4388009;32;33498;-78
2023/10/25 02:39:43;;;;;;;13.60;4.57;;;;;;;19.58;68.88;97915.81;4390426;32;34600;-78
2023/10/25 02:42:12;;;;;;;11.73;3.80;;;;;;;19.58;68.99;97909.56;4390766;32;33834;-78
2023/10/25 02:44:40;;;;;;;10.73;4.68;;;;;;;19.55;69.07;97906.25;4378803;32;33755;-76
2023/10/25 02:47:07;;;;;;;10.15;3.80;;;;;;;19.46;69.37;97904.00;4385931;32;34266;-77
2023/10/25 02:49:35;;;;;;;10.05;4.45;;;;;;;19.53;69.09;97907.50;4378230;32;33575;-78
2023/10/25 02:52:03;;;;;;;15.60;4.25;;;;;;;19.58;68.91;97913.09;4390351;32;34171;-77
2023/10/25 02:54:31;;;;;;;13.93;4.60;;;;;;;19.57;68.93;97903.31;4388431;32;33989;-79
2023/10/25 02:56:58;;;;;;;6.75;3.92;;;;;;;19.48;69.26;97891.03;4391352;32;33558;-75
2023/10/25 02:59:26;;;;;;;12.75;5.22;;;;;;;19.47;69.32;97886.66;4388269;32;33740;-78
2023/10/25 03:01:53;;;;;;;11.38;3.83;;;;;;;19.30;70.06;97883.63;4385783;32;33845;-77
2023/10/25 03:04:21;;;;;;;8.75;4.25;;;;;;;18.96;71.51;97885.62;4390203;32;35136;-78
2023/10/25 03:06:49;;;;;;;14.68;4.00;;;;;;;18.89;71.91;97884.00;4390462;32;34157;-76
2023/10/25 03:09:17;;;;;;;5.05;3.08;;;;;;;19.24;70.31;97890.75;4394952;32;33335;-76
2023/10/25 03:11:45;;;;;;;4.80;2.92;;;;;;;19.34;69.88;97893.00;4390971;32;34232;-77
2023/10/25 03:14:12;;;;;;;8.63;3.95;;;;;;;19.40;69.65;97899.44;4388488;32;34519;-77
2023/10/25 03:16:40;;;;;;;7.12;3.65;;;;;;;19.38;69.74;97907.78;4389153;32;34620;-77
2023/10/25 03:19:07;;;;;;;7.05;3.17;;;;;;;19.08;70.95;97918.34;4384478;32;34538;-75
2023/10/25 03:21:35;;;;;;;9.27;2.10;;;;;;;19.25;70.39;97927.66;4390312;32;35001;-76
2023/10/25 03:24:03;;;;;;;2.28;1.10;;;;;;;18.12;73.86;97935.91;4389600;32;33995;-77
2023/10/25 03:26:31;;;;;;;2.45;0.90;;;;;;;16.93;77.74;97943.59;4387644;32;32121;-73
2023/10/25 03:28:58;;;;;;;3.35;1.45;;;;;;;16.86;76.61;97956.25;4389455;32;34110;-72
2023/10/25 03:31:26;;;;;;;2.53;1.50;;;;;;;16.66;77.98;97966.87;4388262;32;34221;-72
2023/10/25 03:33:53;;;;;;;3.00;2.00;;;;;;;16.48;77.30;97961.97;4390715;32;33860;-72
2023/10/25 03:36:21;;;;;;;4.60;2.70;;;;;;;16.47;76.94;97955.72;4388926;32;33586;-71
2023/10/25 03:38:49;;;;;;;5.95;2.65;;;;;;;16.73;74.79;97956.97;4403064;32;33578;-73
2023/10/25 03:41:16;;;;;;;4.80;2.90;;;;;;;16.58;75.41;97953.53;4390644;32;33971;-73
2023/10/25 03:43:44;;;;;;;3.87;2.30;;;;;;;15.84;79.00;97954.75;4386260;32;35066;-73
2023/10/25 03:46:12;;;;;;;3.55;2.30;;;;;;;16.29;76.85;97956.19;4381639;32;34301;-72
2023/10/25 03:48:40;;;;;;;5.60;3.70;;;;;;;16.17;77.16;97965.00;4376053;32;34047;-71
2023/10/25 03:51:10;;;;;;;8.75;3.05;;;;;;;15.68;79.80;97973.87;4385297;32;34010;-72
2023/10/25 03:53:39;;;;;;;7.65;2.05;;;;;;;15.33;81.87;97968.22;4377348;32;33793;-71
2023/10/25 03:56:07;;;;;;;17.30;2.60;;;;;;;15.68;79.91;97974.69;4390470;32;34396;-69
2023/10/25 03:58:34;;;;;;;5.30;2.90;;;;;;;15.38;80.91;97969.34;4389013;32;33977;-70
2023/10/25 04:01:04;;;;;;;11.60;7.57;;;;;;;15.43;80.57;97974.16;4381936;32;33933;-69
2023/10/25 04:03:37;;;;;;;4.60;3.08;;;;;;;15.27;81.10;97980.59;4388665;32;34864;-69
2023/10/25 04:06:06;;;;;;;6.70;3.78;;;;;;;15.70;79.35;97983.44;4390383;32;33102;-69
2023/10/25 04:08:33;;;;;;;7.65;3.33;;;;;;;15.48;79.31;97993.31;4389728;32;32510;-69
2023/10/25 04:11:01;;;;;;;4.15;2.70;;;;;;;15.78;78.72;98004.06;4387281;32;33877;-71
2023/10/25 04:13:29;;;;;;;4.15;2.05;;;;;;;16.05;76.69;98008.72;4387267;32;34244;-71
2023/10/25 04:16:04;;;;;;;6.90;3.65;;;;;;;16.21;76.31;98010.34;4388859;32;33459;-72
2023/10/25 04:18:32;;;;;;;5.80;3.33;;;;;;;16.31;75.65;98010.00;4390143;32;33505;-71
2023/10/25 04:21:00;;;;;;;4.47;2.70;;;;;;;16.45;74.82;98009.09;4388805;32;34075;-70
2023/10/25 04:23:30;;;;;;;7.18;4.12;;;;;;;16.31;75.17;98023.50;4383027;32;33811;-70
2023/10/25 04:26:11;;;;;;;6.97;3.33;;;;;;;16.06;76.68;98015.78;4374239;32;33764;-70
2023/10/25 04:28:40;;;;;;;5.85;3.03;;;;;;;15.49;79.39;98031.88;4388480;32;33552;-76
2023/10/25 04:31:09;;;;;;;6.30;3.80;;;;;;;15.60;78.13;98032.25;4390502;32;34044;-79
2023/10/25 04:33:37;;;;;;;8.02;4.57;;;;;;;15.61;77.80;98027.69;4387753;32;33979;-76
2023/10/25 04:36:06;;;;;;;6.37;3.47;;;;;;;15.61;77.28;98033.91;4388495;32;34661;-80
2023/10/25 04:38:34;;;;;;;5.32;3.28;;;;;;;15.79;76.80;98040.78;4390300;32;33652;-80
2023/10/25 04:41:01;;;;;;;5.10;2.75;;;;;;;16.00;75.74;98029.22;4389300;32;34078;-76
2023/10/25 04:43:29;;;;;;;4.40;2.35;;;;;;;16.05;75.20;98037.53;4383744;32;34178;-80
2023/10/25 04:45:59;;;;;;;6.37;3.28;;;;;;;15.65;76.61;98047.03;4387293;32;33505;-76
2023/10/25 04:48:27;;;;;;;4.20;2.53;;;;;;;15.55;76.94;98045.44;4390030;32;34100;-75
2023/10/25 04:50:55;;;;;;;6.75;3.83;;;;;;;15.54;76.96;98046.47;4388479;32;34153;-79
2023/10/25 04:53:22;;;;;;;5.20;3.05;;;;;;;15.42;78.23;98047.16;4387752;32;34937;-76
2023/10/25 04:55:50;;;;;;;3.97;2.65;;;;;;;15.32;77.75;98045.56;4390333;32;33664;-77
2023/10/25 04:58:19;;;;;;;4.55;2.53;;;;;;;15.12;79.82;98056.06;4390561;32;33681;-77
2023/10/25 05:00:47;;;;;;;6.10;2.25;;;;;;;15.42;78.56;98060.62;4387078;32;33925;-77
2023/10/25 05:03:14;;;;;;;3.67;2.70;;;;;;;15.17;79.72;98062.75;4386112;32;33986;-75
2023/10/25 05:05:42;;;;;;;5.25;2.65;;;;;;;15.36;78.38;98059.50;4385447;32;33953;-79
2023/10/25 05:08:10;;;;;;;3.10;1.67;;;;;;;15.09;78.95;98063.69;4390472;32;34065;-77
2023/10/25 05:10:38;;;;;;;3.75;1.67;;;;;;;14.96;79.70;98076.94;4390963;32;34980;-80
2023/10/25 05:13:06;;;;;;;6.18;1.80;;;;;;;15.11;79.03;98065.16;4386099;32;33854;-78
2023/10/25 05:15:37;;;;;;;5.20;2.60;;;;;;;14.98;79.85;98077.59;4377311;32;34515;-76
2023/10/25 05:18:05;;;;;;;4.60;1.87;;;;;;;14.65;81.19;98076.03;4388490;32;33984;-78
2023/10/25 05:20:33;;;;;;;2.10;1.48;;;;;;;14.96;80.29;98087.69;4392419;32;33821;-79
2023/10/25 05:23:02;;;;;;;5.05;2.10;;;;;;;14.90;79.03;98083.91;4378733;32;35142;-79
2023/10/25 05:25:30;;;;;;;3.47;1.92;;;;;;;15.24;77.66;98090.63;4389771;32;34006;-77
2023/10/25 05:28:00;;;;;;;4.30;2.75;;;;;;;14.85;80.42;98089.00;4391283;32;34698;-72
2023/10/25 05:30:28;;;;;;;3.37;2.35;;;;;;;15.06;78.49;98099.91;4385005;32;34121;-74
2023/10/25 05:33:01;;;;;;;8.77;3.67;;;;;;;15.19;77.93;98103.84;4386533;32;33723;-72
2023/10/25 05:35:29;;;;;;;5.37;3.15;;;;;;;14.86;79.06;98104.97;4382659;32;33325;-73
2023/10/25 05:37:57;;;;;;;8.63;4.82;;;;;;;14.84;78.83;98100.78;4387430;32;33787;-72
2023/10/25 05:40:26;;;;;;;5.00;3.30;;;;;;;14.19;82.89;98105.63;4388549;32;33540;-72
2023/10/25 05:42:56;;;;;;;9.15;4.10;;;;;;;14.96;78.02;98118.19;4379227;32;33961;-70
2023/10/25 05:45:24;;;;;;;3.35;2.17;;;;;;;14.98;78.06;98126.09;4386350;32;33629;-71
2023/10/25 05:47:51;;;;;;;6.35;4.20;;;;;;;14.41;80.63;98128.19;4389463;32;33800;-68
2023/10/25 05:50:20;;;;;;;5.05;3.17;;;;;;;14.57;80.11;98138.00;4356548;32;32274;-69
2023/10/25 05:52:48;;;;;;;3.67;2.67;;;;;;;14.74;79.31;98137.91;4354386;32;33822;-69
2023/10/25 05:55:16;;;;;;;3.60;2.60;;;;;;;14.72;79.28;98148.00;4359020;32;33021;-69
2023/10/25 05:57:48;;;;;;;5.85;4.18;;;;;;;14.87;77.73;98149.75;4356414;32;34481;-68
2023/10/25 06:00:16;;;;;;;4.95;3.28;;;;;;;14.44;80.23;98160.12;4356305;32;33721;-70
2023/10/25 06:02:44;;;;;;;5.78;3.67;;;;;;;14.50;79.54;98160.41;4356926;32;33948;-69
2023/10/25 06:05:13;;;;;;;5.80;3.00;;;;;;;14.83;77.59;98172.69;4359129;32;33145;-72
2023/10/25 06:07:42;;;;;;;4.00;2.78;;;;;;;15.19;75.70;98190.91;4357638;32;33775;-70
2023/10/25 06:10:10;;;;;;;7.40;4.47;;;;;;;15.14;76.21;98196.00;4359210;32;34967;-69
2023/10/25 06:12:40;;;;;;;5.15;3.33;;;;;;;14.93;76.39;98196.69;4358156;32;33897;-69
2023/10/25 06:15:09;;;;;;;10.77;8.25;;;;;;;14.79;76.93;98214.44;4356924;32;33269;-68
2023/10/25 06:17:37;;;;;;;5.07;3.78;;;;;;;15.09;75.91;98219.97;4359074;32;33536;-69
2023/10/25 06:20:05;;;;;;;5.40;3.22;;;;;;;15.23;75.24;98231.81;4361881;32;34199;-68
2023/10/25 06:22:33;;;;;;;4.37;3.08;;;;;;;15.25;74.70;98229.75;4388114;32;33912;-69
2023/10/25 06:25:04;;;;;;;4.32;3.03;;;;;;;14.89;75.95;98230.34;4390701;32;33437;-68
2023/10/25 06:27:33;;;;;;;3.62;2.65;;;;;;;15.06;76.10;98249.97;4389925;32;33821;-69
2023/10/25 06:30:01;;;;;;;6.20;3.45;;;;;;;15.52;73.69;98249.91;4388761;32;34047;-69
2023/10/25 06:32:31;;;;;;;5.25;2.92;;;;;;;15.54;73.45;98247.87;4362157;32;33863;-69
2023/10/25 06:34:58;;;;;;;7.10;3.47;;;;;;;15.22;74.25;98257.94;4386528;32;33504;-69
2023/10/25 06:37:26;;;;;;;5.20;3.10;;;;;;;14.77;75.90;98256.88;4388048;32;34294;-70
2023/10/25 06:39:54;;;;;;;6.05;3.85;;;;;;;14.77;75.78;98270.34;4390455;32;32621;-70
2023/10/25 06:42:22;;;;;;;4.78;2.75;;;;;;;14.50;76.79;98271.63;4376612;32;34261;-69
2023/10/25 06:44:51;;;;;;;4.43;3.35;;;;;;;14.75;76.12;98266.16;4378303;32;33018;-69
2023/10/25 06:47:18;;;;;;;6.75;3.55;;;;;;;14.82;74.89;98259.03;4391375;32;33712;-69
2023/10/25 06:49:46;;;;;;;3.10;1.83;;;;;;;14.93;75.77;98249.69;4391496;32;34021;-68
2023/10/25 06:52:14;;;;;;;4.72;2.25;;;;;;;14.78;75.15;98244.25;4387528;32;35093;-68
2023/10/25 06:54:42;;;;;;;4.05;1.42;;;;;;;14.93;75.39;98252.38;4385497;32;33370;-71
2023/10/25 06:57:11;;;;;;;4.10;2.15;;;;;;;15.14;74.25;98250.72;4383917;32;33756;-77
2023/10/25 06:59:40;;;;;;;2.42;1.95;;;;;;;14.86;74.19;98245.06;4389652;32;35064;-76
2023/10/25 07:02:21;;;;;;;2.45;1.80;;;;;;;15.15;74.19;98235.38;4383508;32;109806;-76
2023/10/25 07:04:56;;;;;;;4.35;2.33;;;;;;;14.80;75.54;98240.37;4387602;32;34470;-73
2023/10/25 07:07:28;;;;;;;2.60;1.60;;;;;;;15.43;72.44;98245.63;4389361;32;34779;-75
2023/10/25 07:09:57;;;;;;;4.07;2.47;;;;;;;15.59;72.41;98243.59;4387613;32;34978;-75
2023/10/25 07:12:24;;;;;;;5.37;3.10;;;;;;;15.65;71.25;98260.06;4385382;32;34125;-74
2023/10/25 07:15:11;;;;;;;2.53;1.87;;;;;;;15.28;72.68;98257.22;4379333;32;33508;-74
2023/10/25 07:17:39;;;;;;;4.03;1.95;;;;;;;15.62;71.52;98258.59;4387284;32;33457;-73
2023/10/25 07:20:09;;;;;;;3.80;2.50;;;;;;;15.70;70.49;98247.75;4390819;32;33655;-72
2023/10/25 07:22:36;;;;;;;5.28;2.70;;;;;;;15.60;71.88;98242.59;4369896;32;34010;-76
2023/10/25 07:25:05;;;;;;;3.75;2.12;;;;;;;16.01;70.10;98238.66;4372594;32;33145;-75
2023/10/25 07:27:33;;;;;;;4.75;2.53;;;;;;;15.83;71.20;98242.56;4373222;32;34848;-77
2023/10/25 07:30:00;;;;;;;3.75;1.95;;;;;;;15.97;71.26;98234.66;4378803;32;35037;-74
2023/10/25 07:32:30;;;;;;;3.28;1.87;;;;;;;16.47;68.68;98241.16;4369520;32;33991;-74
2023/10/25 07:34:58;;;;;;;2.35;1.27;;;;;;;16.25;69.71;98248.34;4372142;32;33423;-75
2023/10/25 07:37:25;;;;;;;4.15;2.85;;;;;;;16.94;66.82;98240.66;4370076;32;33541;-74
2023/10/25 07:39:53;;;;;;;4.60;2.37;;;;;;;16.53;67.87;98248.47;4373576;32;33756;-77
2023/10/25 07:42:21;;;;;;;2.87;1.83;;;;;;;16.94;66.81;98256.88;4369580;32;35187;-79
2023/10/25 07:44:48;;;;;;;6.22;2.65;;;;;;;16.75;66.25;98268.28;4371489;32;34623;-74
2023/10/25 07:47:17;;;;;;;5.35;2.20;;;;;;;17.22;64.66;98280.47;4372540;32;34164;-78
2023/10/25 07:49:47;;;;;;;3.85;1.80;;;;;;;18.33;60.62;98287.00;4373631;32;33825;-77
2023/10/25 07:52:16;;;;;;;3.47;1.60;;;;;;;17.77;62.90;98291.59;4377803;32;33768;-77
2023/10/25 07:54:44;;;;;;;3.33;2.00;;;;;;;17.91;62.39;98286.09;4372686;32;34264;-76
2023/10/25 07:57:12;;;;;;;6.90;2.37;;;;;;;17.89;62.40;98290.84;4373580;32;33725;-71
2023/10/25 07:59:54;;;;;;;4.32;2.10;;;;;;;18.08;61.02;98289.31;4378861;32;33927;-67
2023/10/25 08:02:21;;;;;;;2.78;1.73;;;;;;;18.21;61.33;98306.69;4370954;32;33828;-68
2023/10/25 08:04:49;;;;;;;3.60;1.67;;;;;;;17.45;63.04;98315.41;4382520;32;34928;-68
2023/10/25 08:07:17;;;;;;;2.67;1.37;;;;;;;17.36;64.01;98314.69;4369573;32;33978;-66
2023/10/25 08:09:46;;;;;;;3.60;2.22;;;;;;;17.22;63.90;98318.31;4373319;32;33998;-69
2023/10/25 08:12:14;;;;;;;3.62;1.77;;;;;;;16.60;66.78;98332.31;4372918;32;33967;-70
2023/10/25 08:14:42;;;;;;;2.47;1.48;;;;;;;16.81;64.80;98323.44;4372403;32;33371;-68
2023/10/25 08:17:10;;;;;;;4.03;1.73;;;;;;;16.63;66.86;98329.19;4357726;32;33811;-70
2023/10/25 08:19:37;;;;;;;3.83;1.85;;;;;;;16.98;65.00;98325.75;4388967;32;33955;-71
2023/10/25 08:22:05;;;;;;;3.17;1.52;;;;;;;17.37;64.13;98315.56;4390053;32;34862;-70
2023/10/25 08:24:34;;;;;;;1.73;1.20;;;;;;;16.68;66.00;98321.38;4385172;32;34243;-69
2023/10/25 08:27:02;;;;;;;3.75;1.77;;;;;;;17.03;65.95;98330.56;4386893;32;33895;-69
2023/10/25 08:29:30;;;;;;;3.08;1.65;;;;;;;17.43;64.58;98328.28;4388202;32;35031;-70
2023/10/25 08:31:57;;;;;;;3.70;1.95;;;;;;;17.01;64.37;98324.50;4387486;32;33953;-69
2023/10/25 08:34:26;;;;;;;4.28;2.47;;;;;;;16.99;64.06;98332.00;4385009;32;33701;-71
2023/10/25 08:36:54;;;;;;;2.58;1.45;;;;;;;17.04;65.15;98353.03;4387042;32;35073;-70
2023/10/25 08:39:22;;;;;;;2.65;1.70;;;;;;;17.24;64.46;98370.34;4388333;32;33855;-71
2023/10/25 08:41:50;;;;;;;3.85;1.85;;;;;;;17.24;64.54;98373.03;4388451;32;34288;-68
2023/10/25 08:44:18;;;;;;;3.15;1.75;;;;;;;16.79;66.10;98382.22;4387398;32;33472;-69
2023/10/25 08:46:47;;;;;;;1.77;1.35;;;;;;;17.30;64.01;98396.59;4388540;32;34019;-69
2023/10/25 08:49:15;;;;;;;2.70;1.98;;;;;;;16.82;64.79;98395.38;4331602;32;33815;-72
2023/10/25 08:51:44;;;;;;;3.87;2.03;;;;;;;17.56;62.73;98409.59;4333536;32;34157;-68
2023/10/25 08:54:13;;;;;;;3.00;1.58;;;;;;;16.93;65.27;98422.75;4344420;32;33446;-69
2023/10/25 08:56:44;;;;;;;3.90;1.50;;;;;;;17.14;64.34;98419.31;4348157;32;33389;-69
2023/10/25 08:59:12;;;;;;;1.55;1.17;;;;;;;17.31;63.06;98409.09;4347920;32;33893;-70
2023/10/25 09:01:39;;;;;;;1.87;1.30;;;;;;;17.26;64.31;98413.41;4345310;32;32761;-69
2023/10/25 09:04:08;;;;;;;3.28;1.62;;;;;;;17.10;65.31;98411.75;4346784;32;34391;-69
2023/10/25 09:06:36;;;;;;;4.15;2.03;;;;;;;16.93;64.86;98406.56;4347247;32;34812;-70
2023/10/25 09:09:07;;;;;;;2.78;1.35;;;;;;;16.96;65.13;98430.50;4348369;32;33760;-70
2023/10/25 09:11:42;;;;;;;3.15;1.67;;;;;;;16.90;64.97;98435.81;4351912;32;33598;-71
2023/10/25 09:14:11;;;;;;;2.65;1.70;;;;;;;17.10;64.73;98441.47;4301238;33;33431;-70
2023/10/25 09:16:41;;;;;;;3.80;1.70;;;;;;;16.94;64.36;98445.22;4303158;33;34617;-70
2023/10/25 09:19:09;;;;;;;2.33;1.52;;;;;;;17.31;63.71;98452.38;4292837;33;34911;-68
2023/10/25 09:21:37;;;;;;;2.55;1.67;;;;;;;16.86;65.03;98456.97;4337805;32;34116;-70
2023/10/25 09:24:08;;;;;;;4.15;1.23;;;;;;;16.67;66.18;98458.31;4340400;33;34759;-68
2023/10/25 09:26:39;;;;;;;1.87;1.02;;;;;;;16.85;64.88;98467.94;4336580;32;35241;-70
2023/10/25 09:29:09;;;;;;;4.03;2.60;;;;;;;17.05;65.32;98465.56;4339355;33;33829;-68
2023/10/25 09:31:37;;;;;;;2.75;1.48;;;;;;;17.58;63.32;98475.16;4340482;32;35204;-68
2023/10/25 09:34:08;;;;;;;1.30;1.12;;;;;;;17.42;64.59;98478.09;4340827;32;33209;-69
2023/10/25 09:36:36;;;;;;;11.27;2.08;;;;;;;17.55;63.77;98467.41;4327063;33;34832;-69
2023/10/25 09:39:04;;;;;;;5.87;1.95;;;;;;;16.99;65.79;98467.97;4336946;32;34330;-68
2023/10/25 09:41:37;;;;;;;2.92;1.87;;;;;;;17.17;64.33;98464.91;4335075;32;34973;-68
2023/10/25 09:44:12;;;;;;;3.85;2.53;;;;;;;17.25;64.64;98465.81;4341388;32;33539;-69
2023/10/25 09:46:42;;;;;;;3.15;1.58;;;;;;;17.11;65.64;98470.19;4379569;32;33754;-68
2023/10/25 09:49:14;;;;;;;3.72;2.12;;;;;;;17.35;65.22;98467.19;4376538;32;34939;-69
2023/10/25 09:52:01;;;;;;;3.65;2.45;;;;;;;17.12;65.67;98467.31;4383726;32;33638;-71
2023/10/25 09:54:35;;;;;;;2.45;1.70;;;;;;;17.36;64.64;98482.38;4391273;32;33782;-69
2023/10/25 09:57:04;;;;;;;3.75;1.98;;;;;;;17.69;63.40;98474.66;4387931;32;34386;-69
2023/10/25 09:59:33;;;;;;;3.22;1.98;;;;;;;17.86;63.45;98469.03;4390054;32;33924;-69
2023/10/25 10:02:02;;;;;;;5.22;2.70;;;;;;;18.06;63.17;98472.78;4388990;32;34414;-69
2023/10/25 10:04:42;;;;;;;4.85;2.10;;;;;;;17.65;63.77;98476.06;4387271;32;33488;-70
2023/10/25 10:07:21;;;;;;;2.37;1.42;;;;;;;18.19;61.39;98466.66;4368792;32;34647;-70
2023/10/25 10:10:28;;;;;;;3.47;1.42;;;;;;;18.13;61.24;98462.84;4387664;32;34167;-69
2023/10/25 10:12:56;;;;;;;2.70;1.20;;;;;;;18.42;61.28;98465.59;4364880;32;34165;-71
2023/10/25 10:15:50;;;;;;;8.63;1.75;;;;;;;18.26;60.39;98466.72;4363306;32;33602;-68
2023/10/25 10:18:18;;;;;;;3.60;1.92;;;;;;;18.58;60.34;98468.84;4365710;32;33293;-69
2023/10/25 10:20:58;;;;;;;2.10;1.27;;;;;;;18.68;59.59;98473.91;4362387;32;34806;-67
2023/10/25 10:23:40;;;;;;;2.53;1.35;;;;;;;19.09;57.97;98465.03;4364762;32;32742;-67
2023/10/25 10:26:08;;;;;;;2.40;1.50;;;;;;;19.06;57.47;98454.59;4364412;32;33149;-67
2023/10/25 10:28:43;;;;;;;1.90;1.00;;;;;;;18.79;58.37;98468.00;4363634;32;32789;-67
2023/10/25 10:31:12;;;;;;;2.58;1.40;;;;;;;18.73;58.80;98460.66;4364251;32;34598;-67
2023/10/25 10:33:43;;;;;;;2.42;1.62;;;;;;;19.13;56.61;98454.63;4345804;32;33055;-68
2023/10/25 10:36:24;;;;;;;5.20;1.73;;;;;;;19.21;56.67;98452.59;4346655;32;33364;-67
2023/10/25 10:39:13;;;;;;;3.10;1.58;;;;;;;19.07;56.38;98448.97;4341094;32;33908;-67
2023/10/25 10:41:42;;;;;;;3.03;1.65;;;;;;;19.37;55.44;98458.72;4340189;32;34806;-68
2023/10/25 10:44:13;;;;;;;3.85;1.85;;;;;;;19.67;55.86;98451.13;4338874;32;33971;-67
2023/10/25 10:46:45;;;;;;;2.10;1.30;;;;;;;19.75;54.41;98453.66;4345518;32;35289;-67
2023/10/25 10:49:16;;;;;;;3.05;1.52;;;;;;;19.41;55.27;98446.41;4341786;32;33774;-67
2023/10/25 10:51:44;;;;;;;2.20;1.25;;;;;;;19.63;55.91;98444.41;4342220;32;34066;-68
2023/10/25 10:54:15;;;;;;;2.70;1.20;;;;;;;19.31;55.00;98442.19;4354612;32;34717;-68
2023/10/25 10:56:43;;;;;;;2.28;1.48;;;;;;;19.21;56.24;98443.63;4354110;32;34351;-67
2023/10/25 10:59:11;;;;;;;3.55;1.58;;;;;;;19.47;55.42;98443.72;4356777;32;33635;-68
2023/10/25 11:01:39;;;;;;;2.30;1.37;;;;;;;19.85;54.24;98434.25;4355696;32;35344;-67
2023/10/25 11:04:07;;;;;;;3.75;0.98;;;;;;;19.75;54.51;98435.50;4364686;32;32563;-67
2023/10/25 11:06:35;;;;;;;2.05;1.15;;;;;;;20.11;53.37;98426.13;4390482;32;33215;-67
2023/10/25 11:09:03;;;;;;;4.30;1.95;;;;;;;19.72;53.00;98427.75;4385958;32;33675;-68
2023/10/25 11:11:31;;;;;;;2.08;1.30;;;;;;;20.01;52.52;98434.69;4386795;32;34849;-67
2023/10/25 11:13:59;;;;;;;2.30;1.10;;;;;;;20.08;53.64;98437.41;4385260;32;34125;-67
2023/10/25 11:16:26;;;;;;;3.97;1.55;;;;;;;19.82;53.70;98440.94;4387853;32;34121;-67
2023/10/25 11:19:05;;;;;;;2.00;1.10;;;;;;;19.64;54.01;98424.38;4386383;32;34664;-67
2023/10/25 11:21:33;;;;;;;2.53;1.23;;;;;;;19.81;51.96;98420.25;4381296;32;33776;-68
2023/10/25 11:24:06;;;;;;;2.42;1.35;;;;;;;20.07;52.85;98416.75;4374871;32;33874;-67
2023/10/25 11:26:37;;;;;;;1.92;1.20;;;;;;;19.98;52.89;98416.09;4384952;32;32926;-66
2023/10/25 11:29:06;;;;;;;1.62;1.15;;;;;;;19.93;52.22;98415.87;4390926;32;35221;-68
2023/10/25 11:31:34;;;;;;;2.08;1.25;;;;;;;20.06;51.43;98415.03;4391135;32;35242;-68
2023/10/25 11:34:01;;;;;;;1.90;1.02;;;;;;;20.08;50.87;98415.69;4388865;32;33904;-69
2023/10/25 11:36:30;;;;;;;1.85;1.48;;;;;;;19.71;52.43;98422.50;4387918;32;34627;-69
2023/10/25 11:39:05;;;;;;;1.75;1.00;;;;;;;20.00;51.28;98433.03;4382405;32;35716;-67
2023/10/25 11:41:32;;;;;;;2.45;1.25;;;;;;;19.94;51.67;98424.88;4385449;32;34048;-68